• Join FlightAware (Why Join?)
  • Login
  • US Flag 
09:21PM EDT


 

Airport Tracker/Info


-or-


 

Live Flight TrackerFlight Track Log ✈ OPT429 ✈ 13-Jun-2014 ✈ KPVU - KTRK

Flight Track Log - Related Links

Times and Time Zones

All times are in EDT time to prevent confusion due to time zone crossing. See the OPT429 flight status page for this flight to view local times or setup timezone preferences in your user account.

Time Position Orientation Groundspeed Altitude Reporting Facility
EDT Latitude Longitude Course Direction KTS MPH feet Rate Location/Type
08:28PM 40.2650 -111.7683 330° Northwest 201 231 7,000  Level Salt Lake Center
08:29PM 40.3333 -111.8244 328° Northwest 267 307 9,000 1,200 Climbing Salt Lake Center
08:30PM 40.3781 -111.8972 309° West 271 312 9,700 1,860 Climbing Salt Lake Center
08:31PM 40.4217 -111.9744 307° West 261 300 12,900 1,560 Climbing Salt Lake Center
08:32PM 40.4767 -112.0703 307° West 347 399 13,000 1,260 Climbing Salt Lake Center
08:33PM 40.5294 -112.1775 303° West 345 397 15,600 3,000 Climbing Salt Lake Center
08:34PM 40.5736 -112.2719 302° West 308 354 19,300 2,940 Climbing Salt Lake Center
08:35PM 40.6214 -112.3692 303° West 315 362 21,700 2,340 Climbing Salt Lake Center
08:36PM 40.6439 -112.5061 282° West 323 372 24,200 1,980 Climbing Salt Lake Center
08:37PM 40.6444 -112.6294 270° West 335 386 25,800 1,740 Climbing Salt Lake Center
08:38PM 40.6453 -112.7553 271° West 343 395 27,800 1,860 Climbing Salt Lake Center
08:39PM 40.6450 -112.8808 270° West 341 392 29,700 1,980 Climbing Salt Lake Center
08:40PM 40.6447 -113.0072 270° West 345 397 32,000 2,160 Climbing Salt Lake Center
08:41PM 40.6431 -113.1267 269° West 330 380 34,200 1,980 Climbing Salt Lake Center
08:42PM 40.6419 -113.2428 269° West 318 366 36,200 1,800 Climbing Salt Lake Center
08:43PM 40.6236 -113.3769 260° West 313 360 37,900 1,140 Climbing Salt Lake Center
08:44PM 40.6069 -113.4889 259° West 312 359 38,600 720 Climbing Salt Lake Center
08:45PM 40.5903 -113.6056 259° West 323 372 39,500 840 Climbing Salt Lake Center
08:46PM 40.5714 -113.7225 258° West 328 377 40,400 900 Climbing Salt Lake Center
08:47PM 40.5544 -113.8400 259° West 328 377 41,400 780 Climbing Salt Lake Center
08:48PM 40.5383 -113.9542 260° West 322 371 42,100 600 Climbing Salt Lake Center
08:49PM 40.5172 -114.0903 259° West 318 366 42,700 420 Climbing Salt Lake Center
08:50PM 40.5017 -114.1992 259° West 309 356 43,000 120 Climbing Salt Lake Center
08:51PM 40.4842 -114.3142 259° West 318 366 43,000  Level Salt Lake Center
08:52PM 40.4650 -114.4331 258° West 328 377 43,000  Level Salt Lake Center
08:53PM 40.4464 -114.5533 259° West 332 382 43,000  Level Salt Lake Center
08:54PM 40.4269 -114.6792 259° West 345 397 43,000  Level Salt Lake Center
08:56PM 40.4050 -114.8217 259° West 351 404 43,000  Level Salt Lake Center
08:57PM 40.3853 -114.9464 258° West 360 414 43,000  Level Salt Lake Center
08:58PM 40.3625 -115.0883 258° West 359 413 43,000  Level Salt Lake Center
08:59PM 40.3433 -115.2106 258° West 356 410 43,000  Level Salt Lake Center
09:00PM 40.3197 -115.3550 258° West 358 412 43,000  Level Salt Lake Center
09:01PM 40.2983 -115.4808 257° West 365 420 43,000  Level Salt Lake Center
09:02PM 40.2789 -115.6058 259° West 365 420 43,000  Level Salt Lake Center
09:03PM 40.2542 -115.7519 258° West 366 421 43,000  Level Salt Lake Center
09:04PM 40.2311 -115.8800 257° West 371 427 43,000  Level Salt Lake Center
09:05PM 40.2069 -116.0231 258° West 364 419 43,000  Level Salt Lake Center
09:06PM 40.1867 -116.1453 258° West 363 418 43,000  Level Salt Lake Center
09:07PM 40.1664 -116.2675 258° West 359 413 43,000  Level Salt Lake Center
09:08PM 40.1414 -116.4053 257° West 352 405 43,000  Level Salt Lake Center
09:09PM 40.1211 -116.5261 258° West 352 405 43,000  Level Salt Lake Center
09:10PM 40.0964 -116.6661 257° West 352 405 43,000  Level Salt Lake Center
09:11PM 40.0750 -116.7911 257° West 359 413 43,000  Level Salt Lake Center
09:12PM 40.0522 -116.9172 257° West 366 421 43,000  Level Salt Lake Center
09:13PM 40.0261 -117.0628 257° West 367 422 43,000  Level Salt Lake Center
09:14PM 40.0039 -117.1861 257° West 366 421 43,000  Level Salt Lake Center
09:15PM 39.9786 -117.3283 257° West 364 419 43,000  Level Salt Lake Center
09:16PM 39.9564 -117.4486 256° West 360 414 43,000  Level Salt Lake Center
09:17PM 39.9339 -117.5731 257° West 362 417 43,000  Level Salt Lake Center
09:18PM 39.9086 -117.7097 256° West 366 421 43,000  Level Oakland Center
09:19PM 39.8858 -117.8375 257° West 365 420 43,000 -1,020 Level Oakland Center
09:20PM 39.8567 -117.9953 257° West 373 429 41,000 -1,920 Descending Oakland Center
09:21PM 39.8322 -118.1278 257° West 375 432 39,100 -1,980 Descending Oakland Center
09:22PM 39.8086 -118.2556 257° West 368 423 37,000 -2,100 Descending Oakland Center
09:23PM 39.7858 -118.3722 256° West 344 396 34,800 -2,340 Descending Oakland Center
09:24PM 39.7617 -118.4947 256° West 346 398 32,300 -2,520 Descending Oakland Center
09:25PM 39.7389 -118.6108 256° West 341 392 29,700 -2,520 Descending Oakland Center
09:26PM 39.7150 -118.7336 256° West 351 404 27,200 -2,760 Descending Oakland Center
09:27PM 39.6844 -118.8889 256° West 379 436 24,100 -2,760 Descending Oakland Center
09:28PM 39.6569 -119.0278 256° West 399 459 21,600 -2,040 Descending Oakland Center
09:29PM 39.6303 -119.1606 255° West 388 447 20,000 -840 Descending Oakland Center
09:30PM 39.6042 -119.2892 255° West 376 433 20,000  Level Oakland Center
09:31PM 39.5792 -119.4122 255° West 359 413 20,000 -600 Level Oakland Center
09:33PM 39.5544 -119.5331 255° West 351 404 18,800 -2,040 Descending Oakland Center
09:34PM 39.5000 -119.7000 247° West 355 409 15,400 -2,580 Descending Northern Cal TRACON
09:35PM 39.4333 -119.8000 229° Southwest 412 474 13,100 -1,740 Descending Northern Cal TRACON
09:36PM 39.3833 -119.8833 232° Southwest 305 351 12,000 -960 Descending Northern Cal TRACON
09:38PM 39.3167 -119.9833 229° Southwest 226 260 10,300 -900 Descending Northern Cal TRACON